createdAt,value
2019-04-21T00:00:58.630Z,8.75
2019-04-21T00:01:56.390Z,8.72
2019-04-21T00:02:55.384Z,8.71
2019-04-21T00:04:02.489Z,8.70
2019-04-21T00:05:16.458Z,8.70
2019-04-21T00:07:16.010Z,8.74
2019-04-21T00:08:27.830Z,8.78
2019-04-21T00:09:18.187Z,8.80
2019-04-21T00:10:13.566Z,8.81
2019-04-21T00:11:18.513Z,8.80
2019-04-21T00:12:13.996Z,8.82
2019-04-21T00:13:12.411Z,8.81
2019-04-21T00:14:05.724Z,8.83
2019-04-21T00:15:06.360Z,8.80
2019-04-21T00:16:00.267Z,8.77
2019-04-21T00:17:02.803Z,8.76
2019-04-21T00:18:00.331Z,8.75
2019-04-21T00:19:01.163Z,8.74
2019-04-21T00:20:05.507Z,8.72
2019-04-21T00:21:08.244Z,8.71
2019-04-21T00:22:07.704Z,8.67
2019-04-21T00:23:13.051Z,8.64
2019-04-21T00:24:05.921Z,8.60
2019-04-21T00:25:11.817Z,8.60
2019-04-21T00:26:04.028Z,8.57
2019-04-21T00:27:14.192Z,8.57
2019-04-21T00:28:17.029Z,8.56
2019-04-21T00:29:16.444Z,8.54
2019-04-21T00:30:17.870Z,8.52
2019-04-21T00:31:12.659Z,8.48
2019-04-21T00:32:11.473Z,8.46
2019-04-21T00:33:04.597Z,8.41
2019-04-21T00:33:55.075Z,8.36
2019-04-21T00:35:02.518Z,8.35
2019-04-21T00:36:00.760Z,8.32
2019-04-21T00:37:07.042Z,8.28
2019-04-21T00:39:15.759Z,8.16
2019-04-21T00:40:17.952Z,8.11
2019-04-21T00:42:16.847Z,8.02
2019-04-21T00:43:08.962Z,7.95
2019-04-21T00:44:10.968Z,7.90
2019-04-21T00:45:07.917Z,7.85
2019-04-21T00:46:04.844Z,7.81
2019-04-21T00:47:08.514Z,7.79
2019-04-21T00:48:20.634Z,7.76
2019-04-21T00:49:10.893Z,7.76
2019-04-21T00:50:19.051Z,7.74
2019-04-21T00:51:16.873Z,7.73
2019-04-21T00:52:28.870Z,7.75
2019-04-21T00:53:05.541Z,7.77
2019-04-21T00:54:13.321Z,7.80
2019-04-21T00:55:30.919Z,7.86
2019-04-21T00:56:09.002Z,7.89
2019-04-21T00:57:17.984Z,7.95
2019-04-21T00:58:13.097Z,7.97
2019-04-21T00:59:20.033Z,7.98
2019-04-21T01:00:18.793Z,7.99
2019-04-21T01:01:16.158Z,7.98
2019-04-21T01:02:09.127Z,7.95
2019-04-21T01:03:20.633Z,7.92
2019-04-21T01:04:09.713Z,7.89
2019-04-21T01:05:11.249Z,7.89
2019-04-21T01:06:21.247Z,7.89
2019-04-21T01:07:12.433Z,7.93
2019-04-21T01:08:09.965Z,7.92
2019-04-21T01:09:16.510Z,7.91
2019-04-21T01:10:05.218Z,7.87
2019-04-21T01:11:18.883Z,7.84
2019-04-21T01:12:12.618Z,7.82
2019-04-21T01:13:23.126Z,7.81
2019-04-21T01:14:27.917Z,7.81
2019-04-21T01:15:16.402Z,7.81
2019-04-21T01:16:13.812Z,7.79
2019-04-21T01:17:18.678Z,7.76
2019-04-21T01:18:16.899Z,7.75
2019-04-21T01:19:17.358Z,7.73
2019-04-21T01:20:08.184Z,7.73
2019-04-21T01:20:55.203Z,7.73
2019-04-21T01:21:55.203Z,7.77
2019-04-21T01:22:55.864Z,7.78
2019-04-21T01:24:04.864Z,7.79
2019-04-21T01:25:05.622Z,7.77
2019-04-21T01:26:06.586Z,7.77
2019-04-21T01:27:04.750Z,7.75
2019-04-21T01:28:15.095Z,7.73
2019-04-21T01:29:06.672Z,7.70
2019-04-21T01:30:16.494Z,7.68
2019-04-21T01:31:13.685Z,7.68
2019-04-21T01:32:16.069Z,7.66
2019-04-21T01:33:12.431Z,7.64
2019-04-21T01:34:15.098Z,7.63
2019-04-21T01:35:15.064Z,7.61
2019-04-21T01:36:14.253Z,7.58
2019-04-21T01:37:12.783Z,7.56
2019-04-21T01:39:19.721Z,7.53
2019-04-21T01:40:26.839Z,7.51
2019-04-21T01:41:21.005Z,7.50
2019-04-21T01:42:19.083Z,7.46
2019-04-21T01:43:15.128Z,7.44
2019-04-21T01:45:11.393Z,7.34
2019-04-21T01:46:10.624Z,7.33
2019-04-21T01:47:11.728Z,7.29
2019-04-21T01:48:13.689Z,7.27
2019-04-21T01:49:10.484Z,7.21
2019-04-21T01:50:04.337Z,7.17
2019-04-21T01:51:11.530Z,7.16
2019-04-21T01:52:17.848Z,7.15
2019-04-21T01:53:22.445Z,7.13
2019-04-21T01:54:14.650Z,7.13
2019-04-21T01:55:12.319Z,7.14
2019-04-21T01:56:18.425Z,7.13
2019-04-21T01:57:12.983Z,7.12
2019-04-21T01:58:05.977Z,7.12
2019-04-21T01:59:03.490Z,7.11
2019-04-21T02:00:04.927Z,7.12
2019-04-21T02:01:08.670Z,7.11
2019-04-21T02:02:17.192Z,7.10
2019-04-21T02:03:37.481Z,7.08
2019-04-21T02:04:14.106Z,7.06
2019-04-21T02:05:17.517Z,7.04
2019-04-21T02:06:11.107Z,7.01
2019-04-21T02:07:15.051Z,6.99
2019-04-21T02:09:10.067Z,6.97
2019-04-21T02:10:11.197Z,6.97
2019-04-21T02:11:17.536Z,6.97
2019-04-21T02:12:13.444Z,6.97
2019-04-21T02:13:15.379Z,6.98
2019-04-21T02:14:17.506Z,6.98
2019-04-21T02:15:14.303Z,6.97
2019-04-21T02:17:20.360Z,7.02
2019-04-21T02:18:16.990Z,7.02
2019-04-21T02:19:12.542Z,6.99
2019-04-21T02:20:09.396Z,6.97
2019-04-21T02:21:04.401Z,6.94
2019-04-21T02:22:10.735Z,6.90
2019-04-21T02:23:26.405Z,6.88
2019-04-21T02:24:27.337Z,6.87
2019-04-21T02:25:08.319Z,6.87
2019-04-21T02:26:21.277Z,6.85
2019-04-21T02:27:19.095Z,6.86
2019-04-21T02:28:22.449Z,6.86
2019-04-21T02:29:18.875Z,6.83
2019-04-21T02:30:32.959Z,6.83
2019-04-21T02:31:29.043Z,6.82
2019-04-21T02:32:33.445Z,6.81
2019-04-21T02:33:27.869Z,6.81
2019-04-21T02:34:27.430Z,6.79
2019-04-21T02:35:33.417Z,6.78
2019-04-21T02:36:27.480Z,6.78
2019-04-21T02:37:36.713Z,6.75
2019-04-21T02:38:33.208Z,6.76
2019-04-21T02:39:35.524Z,6.74
2019-04-21T02:41:18.742Z,6.69
2019-04-21T02:43:22.906Z,6.60
2019-04-21T02:44:30.205Z,6.54
2019-04-21T02:45:20.848Z,6.48
2019-04-21T02:47:36.978Z,6.38
2019-04-21T02:48:28.592Z,6.32
2019-04-21T02:49:35.005Z,6.28
2019-04-21T02:50:22.420Z,6.23
2019-04-21T02:51:28.003Z,6.17
2019-04-21T02:52:31.010Z,6.10
2019-04-21T02:53:31.792Z,6.03
2019-04-21T02:55:22.203Z,5.89
2019-04-21T02:57:23.070Z,5.73
2019-04-21T02:58:34.644Z,5.66
2019-04-21T02:59:23.651Z,5.58
2019-04-21T03:00:19.147Z,5.53
2019-04-21T03:01:32.098Z,5.48
2019-04-21T03:02:16.402Z,5.47
2019-04-21T03:03:29.596Z,5.48
2019-04-21T03:04:30.202Z,5.51
2019-04-21T03:05:29.267Z,5.53
2019-04-21T03:06:16.801Z,5.53
2019-04-21T03:07:19.180Z,5.51
2019-04-21T03:09:19.679Z,5.45
2019-04-21T03:12:22.172Z,5.30
2019-04-21T03:13:29.728Z,5.23
2019-04-21T03:17:29.584Z,4.99
2019-04-21T03:20:25.687Z,4.89
2019-04-21T03:21:22.127Z,4.84
2019-04-21T03:23:31.856Z,4.75
2019-04-21T03:24:29.666Z,4.69
2019-04-21T03:25:37.168Z,4.63
2019-04-21T03:26:20.231Z,4.56
2019-04-21T03:27:17.283Z,4.53
2019-04-21T03:29:28.171Z,4.46
2019-04-21T03:30:45.167Z,4.42
2019-04-21T03:32:28.437Z,4.36
2019-04-21T03:34:12.215Z,4.26
2019-04-21T03:36:02.190Z,4.17
2019-04-21T03:36:47.789Z,4.12
2019-04-21T03:37:30.842Z,4.10
2019-04-21T03:38:29.290Z,4.10
2019-04-21T03:39:18.368Z,4.10
2019-04-21T03:40:22.185Z,4.11
2019-04-21T03:44:26.736Z,4.07
2019-04-21T03:45:33.043Z,4.06
2019-04-21T03:46:15.859Z,4.05
2019-04-21T03:47:32.407Z,4.06
2019-04-21T03:48:27.171Z,4.06
2019-04-21T03:49:28.875Z,4.06
2019-04-21T03:51:20.988Z,4.04
2019-04-21T03:52:37.034Z,4.02
2019-04-21T03:53:28.298Z,4.02
2019-04-21T03:54:20.236Z,3.98
2019-04-21T03:55:51.456Z,3.94
2019-04-21T03:56:44.419Z,3.89
2019-04-21T03:57:38.791Z,3.85
2019-04-21T03:59:12.272Z,3.78
2019-04-21T04:01:19.765Z,3.73
2019-04-21T04:03:49.225Z,3.64
2019-04-21T04:05:36.287Z,3.55
2019-04-21T04:06:25.753Z,3.49
2019-04-21T04:08:23.062Z,3.39
2019-04-21T04:10:14.002Z,3.32
2019-04-21T04:11:24.828Z,3.28
2019-04-21T04:13:15.692Z,3.33
2019-04-21T04:14:31.029Z,3.35
2019-04-21T04:15:31.153Z,3.40
2019-04-21T04:18:42.761Z,3.52
2019-04-21T04:20:28.311Z,3.57
2019-04-21T04:22:31.452Z,3.59
2019-04-21T04:24:30.201Z,3.56
2019-04-21T04:26:13.075Z,3.52
2019-04-21T04:27:49.212Z,3.50
2019-04-21T04:28:28.150Z,3.49
2019-04-21T04:31:33.418Z,3.42
2019-04-21T04:36:33.931Z,3.37
2019-04-21T04:39:43.033Z,3.46
2019-04-21T04:41:34.985Z,3.56
2019-04-21T04:42:35.047Z,3.60
2019-04-21T04:43:25.057Z,3.62
2019-04-21T04:44:42.286Z,3.65
2019-04-21T04:45:30.717Z,3.66
2019-04-21T04:46:28.562Z,3.66
2019-04-21T04:47:20.478Z,3.66
2019-04-21T04:48:11.471Z,3.67
2019-04-21T04:49:40.111Z,3.69
2019-04-21T04:50:35.922Z,3.76
2019-04-21T04:51:36.491Z,3.79
2019-04-21T04:53:32.827Z,3.83
2019-04-21T04:55:26.313Z,3.84
2019-04-21T04:56:31.113Z,3.85
2019-04-21T04:57:34.255Z,3.89
2019-04-21T04:58:29.600Z,3.93
2019-04-21T04:59:33.696Z,4.01
2019-04-21T05:00:18.129Z,4.06
2019-04-21T05:01:32.710Z,4.15
2019-04-21T05:02:20.358Z,4.23
2019-04-21T05:03:15.592Z,4.29
2019-04-21T05:04:16.341Z,4.35
2019-04-21T05:07:33.727Z,4.55
2019-04-21T05:08:36.449Z,4.59
2019-04-21T05:09:21.620Z,4.66
2019-04-21T05:10:22.323Z,4.71
2019-04-21T05:12:16.329Z,4.79
2019-04-21T05:13:29.263Z,4.83
2019-04-21T05:14:25.153Z,4.88
2019-04-21T05:15:19.305Z,4.93
2019-04-21T05:16:36.375Z,5.02
2019-04-21T05:17:31.153Z,5.09
2019-04-21T05:18:24.420Z,5.16
2019-04-21T05:19:20.916Z,5.23
2019-04-21T05:20:23.764Z,5.32
2019-04-21T05:21:30.203Z,5.38
2019-04-21T05:22:21.920Z,5.45
2019-04-21T05:23:15.222Z,5.53
2019-04-21T05:24:13.664Z,5.60
2019-04-21T05:25:11.005Z,5.65
2019-04-21T05:26:09.871Z,5.72
2019-04-21T05:27:12.645Z,5.78
2019-04-21T05:28:08.944Z,5.84
2019-04-21T05:29:05.274Z,5.88
2019-04-21T05:30:17.812Z,5.94
2019-04-21T05:32:14.077Z,6.03
2019-04-21T05:33:20.497Z,6.07
2019-04-21T05:34:18.987Z,6.13
2019-04-21T05:35:08.218Z,6.15
2019-04-21T05:36:16.873Z,6.20
2019-04-21T05:37:14.265Z,6.23
2019-04-21T05:38:12.803Z,6.30
2019-04-21T05:39:10.773Z,6.38
2019-04-21T05:40:10.600Z,6.43
2019-04-21T05:41:06.573Z,6.49
2019-04-21T05:42:07.828Z,6.54
2019-04-21T05:44:19.355Z,6.66
2019-04-21T05:45:21.102Z,6.72
2019-04-21T05:46:21.353Z,6.79
2019-04-21T05:49:09.369Z,6.97
2019-04-21T05:50:11.612Z,7.03
2019-04-21T05:51:10.639Z,7.07
2019-04-21T05:52:03.793Z,7.14
2019-04-21T05:53:24.293Z,7.20
2019-04-21T05:54:22.915Z,7.23
2019-04-21T05:55:18.074Z,7.28
2019-04-21T05:56:16.236Z,7.34
2019-04-21T05:57:10.234Z,7.40
2019-04-21T05:58:11.603Z,7.45
2019-04-21T05:59:12.082Z,7.54
2019-04-21T06:00:20.057Z,7.68
2019-04-21T06:01:27.580Z,7.80
2019-04-21T06:02:23.948Z,7.97
2019-04-21T06:03:19.736Z,8.12
2019-04-21T06:04:26.225Z,8.25
2019-04-21T06:05:28.583Z,8.39
2019-04-21T06:06:22.008Z,8.38
2019-04-21T06:07:21.625Z,8.42
2019-04-21T06:08:19.364Z,8.44
2019-04-21T06:09:14.609Z,8.45
2019-04-21T06:10:14.853Z,8.44
2019-04-21T06:11:20.978Z,8.49
2019-04-21T06:12:18.289Z,8.59
2019-04-21T06:13:13.448Z,8.72
2019-04-21T06:16:13.876Z,9.17
2019-04-21T06:17:25.334Z,9.30
2019-04-21T06:18:13.015Z,9.46
2019-04-21T06:19:29.390Z,9.59
2019-04-21T06:20:17.149Z,9.72
2019-04-21T06:21:16.403Z,9.66
2019-04-21T06:22:16.617Z,9.54
2019-04-21T06:23:12.071Z,9.47
2019-04-21T06:24:18.837Z,9.44
2019-04-21T06:25:40.986Z,9.46
2019-04-21T06:26:44.822Z,9.54
2019-04-21T06:27:24.777Z,9.56
2019-04-21T06:28:26.003Z,9.66
2019-04-21T06:29:18.459Z,9.76
2019-04-21T06:30:10.384Z,9.92
2019-04-21T06:31:21.602Z,10.07
2019-04-21T06:32:30.457Z,10.04
2019-04-21T06:33:15.404Z,9.99
2019-04-21T06:34:17.266Z,10.05
2019-04-21T06:36:24.159Z,10.37
2019-04-21T06:38:13.138Z,10.78
2019-04-21T06:39:17.819Z,10.86
2019-04-21T06:40:23.037Z,10.91
2019-04-21T06:41:21.354Z,10.99
2019-04-21T06:42:16.729Z,11.00
2019-04-21T06:43:25.940Z,11.07
2019-04-21T06:44:13.804Z,11.12
2019-04-21T06:45:20.440Z,11.14
2019-04-21T06:46:25.610Z,11.12
2019-04-21T06:47:23.084Z,11.10
2019-04-21T06:48:18.461Z,11.07
2019-04-21T06:49:13.349Z,11.05
2019-04-21T06:51:23.693Z,11.02
2019-04-21T06:52:41.890Z,11.07
2019-04-21T06:54:14.531Z,11.28
2019-04-21T06:56:25.463Z,11.52
2019-04-21T06:57:18.696Z,11.64
2019-04-21T06:58:18.342Z,11.75
2019-04-21T07:00:15.026Z,11.73
2019-04-21T07:01:18.918Z,11.73
2019-04-21T07:03:20.610Z,11.82
2019-04-21T07:04:25.194Z,11.94
2019-04-21T07:07:14.138Z,12.20
2019-04-21T07:08:29.383Z,12.41
2019-04-21T07:09:22.326Z,12.50
2019-04-21T07:11:15.054Z,12.80
2019-04-21T07:12:13.894Z,13.06
2019-04-21T07:13:08.263Z,13.30
2019-04-21T07:14:30.087Z,13.46
2019-04-21T07:15:19.188Z,13.54
2019-04-21T07:16:13.829Z,13.61
2019-04-21T07:17:20.303Z,13.59
2019-04-21T07:18:19.459Z,13.55
2019-04-21T07:19:22.113Z,13.49
2019-04-21T07:20:18.796Z,13.20
2019-04-21T07:21:14.327Z,12.91
2019-04-21T07:22:15.813Z,12.76
2019-04-21T07:24:22.637Z,12.86
2019-04-21T07:25:13.710Z,12.99
2019-04-21T07:26:22.239Z,13.11
2019-04-21T07:28:19.037Z,13.08
2019-04-21T07:30:13.143Z,13.33
2019-04-21T07:31:22.802Z,13.48
2019-04-21T07:32:19.134Z,13.45
2019-04-21T07:33:46.229Z,13.37
2019-04-21T07:34:25.133Z,13.39
2019-04-21T07:36:11.699Z,13.50
2019-04-21T07:37:13.906Z,13.61
2019-04-21T07:38:17.997Z,13.62
2019-04-21T07:39:15.284Z,13.57
2019-04-21T07:40:09.438Z,13.54
2019-04-21T07:41:09.199Z,13.54
2019-04-21T07:42:13.340Z,13.47
2019-04-21T07:43:10.765Z,13.36
2019-04-21T07:44:08.733Z,13.41
2019-04-21T07:45:13.028Z,13.55
2019-04-21T07:46:10.159Z,13.75
2019-04-21T07:47:15.773Z,13.91
2019-04-21T07:49:12.768Z,13.96
2019-04-21T07:50:08.756Z,13.93
2019-04-21T07:51:20.697Z,13.92
2019-04-21T07:52:18.729Z,13.94
2019-04-21T07:53:23.918Z,14.07
2019-04-21T07:54:13.836Z,14.33
2019-04-21T07:56:06.277Z,14.37
2019-04-21T07:57:06.688Z,14.42
2019-04-21T07:58:14.592Z,14.50
2019-04-21T07:59:12.734Z,14.60
2019-04-21T08:00:20.607Z,14.45
2019-04-21T08:01:18.252Z,14.29
2019-04-21T08:02:16.982Z,14.32
2019-04-21T08:03:13.842Z,14.26
2019-04-21T08:04:24.283Z,14.29
2019-04-21T08:05:17.313Z,14.48
2019-04-21T08:06:22.348Z,14.72
2019-04-21T08:08:11.379Z,15.15
2019-04-21T08:09:12.577Z,15.16
2019-04-21T08:10:16.031Z,14.98
2019-04-21T08:11:12.229Z,14.95
2019-04-21T08:12:09.539Z,14.85
2019-04-21T08:13:22.041Z,14.77
2019-04-21T08:14:17.000Z,14.81
2019-04-21T08:15:15.671Z,14.86
2019-04-21T08:16:25.665Z,15.06
2019-04-21T08:17:10.997Z,15.24
2019-04-21T08:18:11.771Z,15.31
2019-04-21T08:19:15.654Z,15.44
2019-04-21T08:20:13.951Z,15.52
2019-04-21T08:21:19.531Z,15.43
2019-04-21T08:22:15.703Z,15.34
2019-04-21T08:24:14.488Z,15.47
2019-04-21T08:25:14.899Z,15.36
2019-04-21T08:26:16.611Z,15.34
2019-04-21T08:27:18.872Z,15.43
2019-04-21T08:28:08.948Z,15.68
2019-04-21T08:29:21.204Z,15.91
2019-04-21T08:30:21.517Z,16.08
2019-04-21T08:31:23.633Z,16.27
2019-04-21T08:32:14.496Z,16.50
2019-04-21T08:33:26.262Z,16.69
2019-04-21T08:34:17.829Z,16.86
2019-04-21T08:36:28.183Z,17.16
2019-04-21T08:37:18.235Z,17.33
2019-04-21T08:39:13.399Z,17.31
2019-04-21T08:40:21.363Z,17.31
2019-04-21T08:41:13.674Z,17.23
2019-04-21T08:42:19.816Z,16.99
2019-04-21T08:43:21.148Z,16.75
2019-04-21T08:44:20.566Z,16.55
2019-04-21T08:46:15.223Z,16.72
2019-04-21T08:47:20.318Z,16.70
2019-04-21T08:48:12.428Z,16.63
2019-04-21T08:49:15.810Z,16.65
2019-04-21T08:51:27.590Z,16.82
2019-04-21T08:52:21.260Z,16.98
2019-04-21T08:53:13.937Z,17.18
2019-04-21T08:54:18.378Z,17.39
2019-04-21T08:55:20.298Z,17.34
2019-04-21T08:56:16.425Z,17.31
2019-04-21T08:57:20.105Z,17.48
2019-04-21T08:58:15.445Z,17.71
2019-04-21T08:59:19.229Z,17.67
2019-04-21T09:00:19.797Z,17.58
2019-04-21T09:01:17.583Z,17.65
2019-04-21T09:03:17.761Z,17.88
2019-04-21T09:04:13.298Z,17.97
2019-04-21T09:05:15.844Z,18.20
2019-04-21T09:06:13.839Z,18.34
2019-04-21T09:07:16.209Z,18.48
2019-04-21T09:08:13.775Z,18.66
2019-04-21T09:09:20.024Z,18.78
2019-04-21T09:10:09.471Z,18.73
2019-04-21T09:11:12.831Z,18.71
2019-04-21T09:12:17.610Z,18.54
2019-04-21T09:13:15.275Z,18.51
2019-04-21T09:14:13.724Z,18.53
2019-04-21T09:15:13.979Z,18.48
2019-04-21T09:16:09.723Z,18.38
2019-04-21T09:17:12.102Z,18.34
2019-04-21T09:18:11.473Z,18.27
2019-04-21T09:19:20.167Z,18.27
2019-04-21T09:20:16.970Z,18.32
2019-04-21T09:21:13.558Z,18.42
2019-04-21T09:22:12.835Z,18.48
2019-04-21T09:23:15.432Z,18.65
2019-04-21T09:24:16.708Z,18.90
2019-04-21T09:25:21.164Z,19.02
2019-04-21T09:26:13.846Z,19.10
2019-04-21T09:27:10.179Z,19.19
2019-04-21T09:28:12.618Z,18.96
2019-04-21T09:29:05.661Z,18.71
2019-04-21T09:30:00.309Z,18.66
2019-04-21T09:30:58.477Z,18.87
2019-04-21T09:31:59.141Z,19.06
2019-04-21T09:32:56.860Z,19.13
2019-04-21T09:34:00.306Z,19.26
2019-04-21T09:34:55.800Z,19.40
2019-04-21T09:35:59.662Z,19.52
2019-04-21T09:37:12.744Z,19.51
2019-04-21T09:38:02.181Z,19.31
2019-04-21T09:39:00.081Z,19.20
2019-04-21T09:39:57.407Z,19.29
2019-04-21T09:40:56.207Z,19.40
2019-04-21T09:41:57.691Z,19.37
2019-04-21T09:42:59.282Z,19.36
2019-04-21T09:43:57.225Z,19.51
2019-04-21T09:45:00.878Z,19.64
2019-04-21T09:45:56.679Z,19.32
2019-04-21T09:46:58.532Z,19.15
2019-04-21T09:48:02.657Z,19.23
2019-04-21T09:48:59.261Z,19.37
2019-04-21T09:49:56.298Z,19.54
2019-04-21T09:50:55.285Z,19.78
2019-04-21T09:51:55.671Z,19.94
2019-04-21T09:52:59.761Z,20.20
2019-04-21T09:54:00.933Z,20.30
2019-04-21T09:55:04.178Z,20.31
2019-04-21T09:56:01.060Z,20.11
2019-04-21T09:57:00.275Z,20.04
2019-04-21T09:57:57.586Z,20.19
2019-04-21T09:59:07.253Z,20.47
2019-04-21T10:00:04.120Z,20.45
2019-04-21T10:01:06.241Z,20.43
2019-04-21T10:02:06.480Z,20.41
2019-04-21T10:03:02.919Z,20.09
2019-04-21T10:03:59.777Z,20.18
2019-04-21T10:04:57.289Z,20.15
2019-04-21T10:05:56.278Z,20.06
2019-04-21T10:06:56.266Z,20.00
2019-04-21T10:07:55.817Z,20.13
2019-04-21T10:08:58.331Z,20.30
2019-04-21T10:09:55.719Z,20.09
2019-04-21T10:10:56.903Z,20.08
2019-04-21T10:11:57.029Z,20.04
2019-04-21T10:12:56.287Z,20.18
2019-04-21T10:13:55.757Z,20.19
2019-04-21T10:14:55.298Z,20.16
2019-04-21T10:15:56.341Z,20.15
2019-04-21T10:16:58.098Z,20.37
2019-04-21T10:17:56.196Z,20.56
2019-04-21T10:18:56.731Z,20.66
2019-04-21T10:19:55.189Z,20.70
2019-04-21T10:20:56.951Z,20.71
2019-04-21T10:21:56.555Z,20.66
2019-04-21T10:22:55.620Z,20.75
2019-04-21T10:23:55.731Z,20.82
2019-04-21T10:24:56.394Z,20.93
2019-04-21T10:25:56.715Z,21.12
2019-04-21T10:26:55.657Z,20.97
2019-04-21T10:27:56.971Z,21.00
2019-04-21T10:28:58.693Z,21.06
2019-04-21T10:29:59.047Z,21.07
2019-04-21T10:30:56.490Z,20.92
2019-04-21T10:31:55.680Z,20.87
2019-04-21T10:32:56.523Z,20.55
2019-04-21T10:33:55.821Z,20.28
2019-04-21T10:34:55.503Z,20.29
2019-04-21T10:35:56.841Z,20.28
2019-04-21T10:36:55.722Z,20.32
2019-04-21T10:38:06.783Z,20.48
2019-04-21T10:38:57.110Z,20.71
2019-04-21T10:39:55.842Z,20.85
2019-04-21T10:40:57.030Z,20.79
2019-04-21T10:41:55.749Z,20.87
2019-04-21T10:42:58.324Z,21.00
2019-04-21T10:43:55.676Z,21.08
2019-04-21T10:44:56.877Z,21.13
2019-04-21T10:45:56.977Z,21.08
2019-04-21T10:46:56.029Z,21.04
2019-04-21T10:47:56.830Z,21.19
2019-04-21T10:48:56.798Z,21.40
2019-04-21T10:49:55.808Z,21.66
2019-04-21T10:50:55.417Z,21.53
2019-04-21T10:51:55.618Z,21.52
2019-04-21T10:52:55.519Z,21.52
2019-04-21T10:53:56.055Z,21.53
2019-04-21T10:55:15.620Z,21.55
2019-04-21T10:56:06.123Z,21.61
2019-04-21T10:56:56.571Z,21.52
2019-04-21T10:57:55.956Z,21.30
2019-04-21T10:58:56.210Z,21.09
2019-04-21T10:59:57.630Z,21.13
2019-04-21T11:00:55.807Z,21.37
2019-04-21T11:01:56.811Z,21.26
2019-04-21T11:02:56.868Z,21.41
2019-04-21T11:03:55.812Z,21.46
2019-04-21T11:04:56.702Z,21.37
2019-04-21T11:05:56.707Z,21.25
2019-04-21T11:06:59.441Z,21.19
2019-04-21T11:08:56.104Z,21.52
2019-04-21T11:09:56.099Z,21.58
2019-04-21T11:10:56.033Z,21.67
2019-04-21T11:11:55.868Z,21.86
2019-04-21T11:12:56.828Z,22.15
2019-04-21T11:13:56.663Z,22.25
2019-04-21T11:14:56.813Z,22.18
2019-04-21T11:15:55.390Z,22.11
2019-04-21T11:16:56.521Z,22.03
2019-04-21T11:17:56.005Z,22.12
2019-04-21T11:18:56.019Z,22.12
2019-04-21T11:19:57.031Z,22.11
2019-04-21T11:20:55.835Z,22.17
2019-04-21T11:21:56.849Z,22.17
2019-04-21T11:22:57.445Z,22.28
2019-04-21T11:23:56.540Z,22.27
2019-04-21T11:24:56.686Z,22.21
2019-04-21T11:25:55.790Z,22.06
2019-04-21T11:26:55.936Z,21.85
2019-04-21T11:27:56.012Z,21.76
2019-04-21T11:28:56.730Z,21.89
2019-04-21T11:29:55.778Z,21.94
2019-04-21T11:30:54.880Z,21.93
2019-04-21T11:31:56.903Z,21.79
2019-04-21T11:32:57.116Z,21.71
2019-04-21T11:33:57.452Z,21.43
2019-04-21T11:34:56.949Z,21.49
2019-04-21T11:35:57.306Z,21.59
2019-04-21T11:36:56.333Z,21.79
2019-04-21T11:38:04.630Z,21.99
2019-04-21T11:39:09.457Z,22.20
2019-04-21T11:40:00.160Z,22.47
2019-04-21T11:40:56.004Z,22.54
2019-04-21T11:41:57.448Z,22.07
2019-04-21T11:42:55.935Z,22.02
2019-04-21T11:43:57.104Z,21.93
2019-04-21T11:44:55.908Z,21.95
2019-04-21T11:45:55.823Z,22.07
2019-04-21T11:46:56.398Z,22.27
2019-04-21T11:47:56.438Z,22.44
2019-04-21T11:48:55.444Z,22.62
2019-04-21T11:49:56.997Z,22.72
2019-04-21T11:50:57.133Z,22.67
2019-04-21T11:51:56.549Z,22.71
2019-04-21T11:52:56.877Z,22.80
2019-04-21T11:53:56.930Z,22.93
2019-04-21T11:54:56.095Z,23.04
2019-04-21T11:55:57.006Z,23.03
2019-04-21T11:56:56.947Z,23.00
2019-04-21T11:57:56.454Z,23.09
2019-04-21T11:58:55.798Z,23.25
2019-04-21T11:59:55.642Z,23.47
2019-04-21T12:00:55.930Z,23.53
2019-04-21T12:01:57.258Z,23.41
2019-04-21T12:02:55.621Z,23.21
2019-04-21T12:03:55.734Z,23.07
2019-04-21T12:04:55.331Z,22.87
2019-04-21T12:05:55.747Z,22.70
2019-04-21T12:06:56.005Z,22.62
2019-04-21T12:07:58.388Z,22.29
2019-04-21T12:08:59.344Z,21.79
2019-04-21T12:09:55.579Z,21.65
2019-04-21T12:10:55.782Z,21.38
2019-04-21T12:11:57.025Z,21.37
2019-04-21T12:12:55.690Z,21.50
2019-04-21T12:13:56.246Z,21.76
2019-04-21T12:14:59.826Z,21.94
2019-04-21T12:15:57.125Z,21.99
2019-04-21T12:16:57.092Z,22.16
2019-04-21T12:17:56.451Z,22.48
2019-04-21T12:18:56.786Z,22.78
2019-04-21T12:19:56.937Z,22.88
2019-04-21T12:20:55.860Z,22.91
2019-04-21T12:22:05.361Z,23.03
2019-04-21T12:22:56.994Z,23.16
2019-04-21T12:23:56.521Z,23.14
2019-04-21T12:24:57.420Z,23.09
2019-04-21T12:25:56.952Z,23.07
2019-04-21T12:26:56.130Z,23.12
2019-04-21T12:27:56.174Z,22.99
2019-04-21T12:28:56.129Z,22.55
2019-04-21T12:29:55.946Z,22.43
2019-04-21T12:30:56.065Z,22.18
2019-04-21T12:31:57.239Z,21.98
2019-04-21T12:32:56.193Z,21.87
2019-04-21T12:33:56.174Z,21.99
2019-04-21T12:34:57.708Z,21.93
2019-04-21T12:35:56.107Z,21.96
2019-04-21T12:36:56.947Z,22.13
2019-04-21T12:37:56.413Z,22.38
2019-04-21T12:38:59.725Z,22.45
2019-04-21T12:39:56.857Z,22.35
2019-04-21T12:40:56.925Z,22.33
2019-04-21T12:41:56.420Z,22.27
2019-04-21T12:42:56.811Z,22.21
2019-04-21T12:43:56.960Z,22.16
2019-04-21T12:44:57.133Z,22.28
2019-04-21T12:45:55.951Z,22.19
2019-04-21T12:46:56.129Z,21.89
2019-04-21T12:47:55.969Z,21.64
2019-04-21T12:48:55.966Z,21.71
2019-04-21T12:49:56.994Z,21.81
2019-04-21T12:50:57.464Z,21.95
2019-04-21T12:51:55.989Z,21.96
2019-04-21T12:52:56.161Z,21.91
2019-04-21T12:53:57.467Z,21.68
2019-04-21T12:54:56.068Z,21.51
2019-04-21T12:55:57.878Z,21.48
2019-04-21T12:56:56.123Z,21.52
2019-04-21T12:57:57.231Z,21.46
2019-04-21T12:58:57.539Z,21.46
2019-04-21T12:59:57.048Z,21.48
2019-04-21T13:00:56.726Z,21.56
2019-04-21T13:01:56.884Z,21.68
2019-04-21T13:02:56.159Z,21.68
2019-04-21T13:03:55.872Z,21.78
2019-04-21T13:04:55.979Z,21.97
2019-04-21T13:05:56.083Z,22.13
2019-04-21T13:06:55.793Z,22.03
2019-04-21T13:07:55.587Z,22.20
2019-04-21T13:09:02.994Z,22.32
2019-04-21T13:09:58.370Z,22.36
2019-04-21T13:10:56.256Z,22.53
2019-04-21T13:11:56.972Z,22.69
2019-04-21T13:12:56.433Z,22.80
2019-04-21T13:13:56.238Z,22.70
2019-04-21T13:14:57.425Z,22.69
2019-04-21T13:15:57.592Z,22.60
2019-04-21T13:16:57.343Z,22.64
2019-04-21T13:17:56.321Z,22.57
2019-04-21T13:18:57.513Z,22.38
2019-04-21T13:19:56.981Z,22.19
2019-04-21T13:20:57.847Z,21.95
2019-04-21T13:21:56.137Z,21.95
2019-04-21T13:22:56.106Z,21.98
2019-04-21T13:23:56.807Z,22.08
2019-04-21T13:24:56.014Z,21.99
2019-04-21T13:25:56.103Z,21.98
2019-04-21T13:26:58.508Z,22.14
2019-04-21T13:27:54.797Z,22.15
2019-04-21T13:28:58.409Z,22.13
2019-04-21T13:29:56.590Z,22.15
2019-04-21T13:30:56.375Z,22.11
2019-04-21T13:31:56.286Z,22.03
2019-04-21T13:32:58.533Z,22.05
2019-04-21T13:33:55.787Z,22.20
2019-04-21T13:34:57.037Z,22.29
2019-04-21T13:35:57.226Z,22.36
2019-04-21T13:36:57.244Z,22.51
2019-04-21T13:37:56.355Z,22.63
2019-04-21T13:39:14.599Z,22.79
2019-04-21T13:40:21.080Z,22.85
2019-04-21T13:41:12.260Z,22.65
2019-04-21T13:42:06.624Z,22.34
2019-04-21T13:42:58.858Z,22.12
2019-04-21T13:43:56.963Z,21.95
2019-04-21T13:44:57.985Z,22.03
2019-04-21T13:45:57.902Z,22.07
2019-04-21T13:46:56.557Z,22.17
2019-04-21T13:47:56.720Z,22.37
2019-04-21T13:48:56.089Z,22.45
2019-04-21T13:49:57.880Z,22.45
2019-04-21T13:50:55.493Z,22.34
2019-04-21T13:51:56.190Z,22.35
2019-04-21T13:52:56.558Z,22.47
2019-04-21T13:53:55.616Z,22.61
2019-04-21T13:54:56.136Z,22.57
2019-04-21T13:55:56.650Z,22.47
2019-04-21T13:56:56.536Z,22.07
2019-04-21T13:57:56.793Z,21.85
2019-04-21T13:58:56.039Z,21.83
2019-04-21T13:59:57.191Z,21.61
2019-04-21T14:00:56.145Z,21.41
2019-04-21T14:01:55.994Z,21.48
2019-04-21T14:02:56.510Z,21.64
2019-04-21T14:03:55.896Z,21.79
2019-04-21T14:04:56.204Z,21.87
2019-04-21T14:05:56.362Z,21.93
2019-04-21T14:06:56.416Z,21.92
2019-04-21T14:07:57.907Z,21.90
2019-04-21T14:08:56.998Z,21.89
2019-04-21T14:10:00.777Z,21.92
2019-04-21T14:10:55.845Z,21.91
2019-04-21T14:11:59.060Z,21.95
2019-04-21T14:12:56.316Z,21.96
2019-04-21T14:13:56.481Z,21.85
2019-04-21T14:14:56.587Z,21.74
2019-04-21T14:15:55.954Z,21.74
2019-04-21T14:16:56.234Z,21.82
2019-04-21T14:17:56.905Z,21.84
2019-04-21T14:18:57.203Z,21.79
2019-04-21T14:19:57.244Z,21.74
2019-04-21T14:20:57.412Z,21.68
2019-04-21T14:21:57.107Z,21.67
2019-04-21T14:23:08.104Z,21.66
2019-04-21T14:23:57.756Z,21.63
2019-04-21T14:24:56.334Z,21.63
2019-04-21T14:25:55.933Z,21.61
2019-04-21T14:26:56.265Z,21.62
2019-04-21T14:27:57.475Z,21.65
2019-04-21T14:28:56.813Z,21.65